sensor_id;sensor_type;location;lat;lon;timestamp;temperature;humidity
20977;DHT22;10647;51.016;3.720;2023-05-21T00:01:07;17.70;98.70
20977;DHT22;10647;51.016;3.720;2023-05-21T00:03:34;17.70;98.90
20977;DHT22;10647;51.016;3.720;2023-05-21T00:06:02;17.70;99.00
20977;DHT22;10647;51.016;3.720;2023-05-21T00:08:29;17.70;99.10
20977;DHT22;10647;51.016;3.720;2023-05-21T00:10:59;17.60;99.10
20977;DHT22;10647;51.016;3.720;2023-05-21T00:13:26;17.50;99.20
20977;DHT22;10647;51.016;3.720;2023-05-21T00:15:54;17.50;99.30
20977;DHT22;10647;51.016;3.720;2023-05-21T00:18:21;17.50;99.50
20977;DHT22;10647;51.016;3.720;2023-05-21T00:20:51;17.50;99.60
20977;DHT22;10647;51.016;3.720;2023-05-21T00:23:18;17.40;99.80
20977;DHT22;10647;51.016;3.720;2023-05-21T00:25:46;17.40;99.90
20977;DHT22;10647;51.016;3.720;2023-05-21T00:28:15;17.30;99.90
20977;DHT22;10647;51.016;3.720;2023-05-21T00:30:43;17.30;99.90
20977;DHT22;10647;51.016;3.720;2023-05-21T00:33:11;17.30;99.90
20977;DHT22;10647;51.016;3.720;2023-05-21T00:35:40;17.20;99.90
20977;DHT22;10647;51.016;3.720;2023-05-21T00:38:07;17.20;99.90
20977;DHT22;10647;51.016;3.720;2023-05-21T00:40:35;17.20;99.90
20977;DHT22;10647;51.016;3.720;2023-05-21T00:43:02;17.20;99.90
20977;DHT22;10647;51.016;3.720;2023-05-21T00:45:30;17.10;99.90
20977;DHT22;10647;51.016;3.720;2023-05-21T00:47:57;17.10;99.90
20977;DHT22;10647;51.016;3.720;2023-05-21T00:50:26;17.00;99.90
20977;DHT22;10647;51.016;3.720;2023-05-21T00:52:56;17.00;99.90
20977;DHT22;10647;51.016;3.720;2023-05-21T00:55:25;17.00;99.90
20977;DHT22;10647;51.016;3.720;2023-05-21T00:57:53;16.90;99.90
20977;DHT22;10647;51.016;3.720;2023-05-21T01:00:20;16.90;99.90
20977;DHT22;10647;51.016;3.720;2023-05-21T01:02:50;16.90;99.90
20977;DHT22;10647;51.016;3.720;2023-05-21T01:05:18;16.90;99.90
20977;DHT22;10647;51.016;3.720;2023-05-21T01:07:47;16.80;99.90
20977;DHT22;10647;51.016;3.720;2023-05-21T01:10:15;16.90;99.90
20977;DHT22;10647;51.016;3.720;2023-05-21T01:12:43;16.80;99.90
20977;DHT22;10647;51.016;3.720;2023-05-21T01:15:31;16.80;99.90
20977;DHT22;10647;51.016;3.720;2023-05-21T01:17:58;16.80;99.90
20977;DHT22;10647;51.016;3.720;2023-05-21T01:20:28;16.80;99.90
20977;DHT22;10647;51.016;3.720;2023-05-21T01:22:57;16.70;99.90
20977;DHT22;10647;51.016;3.720;2023-05-21T01:25:25;16.70;99.90
20977;DHT22;10647;51.016;3.720;2023-05-21T01:27:52;16.70;99.90
20977;DHT22;10647;51.016;3.720;2023-05-21T01:30:21;16.60;99.90
20977;DHT22;10647;51.016;3.720;2023-05-21T01:33:03;16.60;99.90
20977;DHT22;10647;51.016;3.720;2023-05-21T01:35:38;16.60;99.90
20977;DHT22;10647;51.016;3.720;2023-05-21T01:40:43;16.50;99.90
20977;DHT22;10647;51.016;3.720;2023-05-21T01:43:10;16.50;99.90
20977;DHT22;10647;51.016;3.720;2023-05-21T01:45:57;16.50;99.90
20977;DHT22;10647;51.016;3.720;2023-05-21T01:48:30;16.40;99.90
20977;DHT22;10647;51.016;3.720;2023-05-21T01:51:01;16.40;99.90
20977;DHT22;10647;51.016;3.720;2023-05-21T01:53:28;16.40;99.90
20977;DHT22;10647;51.016;3.720;2023-05-21T01:55:59;16.30;99.90
20977;DHT22;10647;51.016;3.720;2023-05-21T01:58:28;16.30;99.90
20977;DHT22;10647;51.016;3.720;2023-05-21T02:00:55;16.30;99.90
20977;DHT22;10647;51.016;3.720;2023-05-21T02:03:25;16.30;99.90
20977;DHT22;10647;51.016;3.720;2023-05-21T02:05:53;16.20;99.90
20977;DHT22;10647;51.016;3.720;2023-05-21T02:08:21;16.20;99.90
20977;DHT22;10647;51.016;3.720;2023-05-21T02:10:49;16.20;99.90
20977;DHT22;10647;51.016;3.720;2023-05-21T02:13:16;16.20;99.90
20977;DHT22;10647;51.016;3.720;2023-05-21T02:15:48;16.10;99.90
20977;DHT22;10647;51.016;3.720;2023-05-21T02:18:17;16.10;99.90
20977;DHT22;10647;51.016;3.720;2023-05-21T02:20:46;16.10;99.90
20977;DHT22;10647;51.016;3.720;2023-05-21T02:23:14;16.10;99.90
20977;DHT22;10647;51.016;3.720;2023-05-21T02:25:41;16.10;99.90
20977;DHT22;10647;51.016;3.720;2023-05-21T02:28:09;16.00;99.90
20977;DHT22;10647;51.016;3.720;2023-05-21T02:30:38;16.00;99.90
20977;DHT22;10647;51.016;3.720;2023-05-21T02:33:05;16.00;99.90
20977;DHT22;10647;51.016;3.720;2023-05-21T02:35:34;15.90;99.90
20977;DHT22;10647;51.016;3.720;2023-05-21T02:38:01;15.90;99.90
20977;DHT22;10647;51.016;3.720;2023-05-21T02:40:30;15.90;99.90
20977;DHT22;10647;51.016;3.720;2023-05-21T02:42:58;15.90;99.90
20977;DHT22;10647;51.016;3.720;2023-05-21T02:45:27;15.90;99.90
20977;DHT22;10647;51.016;3.720;2023-05-21T02:47:54;15.90;99.90
20977;DHT22;10647;51.016;3.720;2023-05-21T02:50:23;15.90;99.90
20977;DHT22;10647;51.016;3.720;2023-05-21T02:52:50;15.90;99.90
20977;DHT22;10647;51.016;3.720;2023-05-21T02:55:19;15.90;99.90
20977;DHT22;10647;51.016;3.720;2023-05-21T02:57:47;15.90;99.90
20977;DHT22;10647;51.016;3.720;2023-05-21T03:00:15;15.90;99.90
20977;DHT22;10647;51.016;3.720;2023-05-21T03:02:42;15.90;99.90
20977;DHT22;10647;51.016;3.720;2023-05-21T03:05:10;15.90;99.90
20977;DHT22;10647;51.016;3.720;2023-05-21T03:07:37;15.90;99.90
20977;DHT22;10647;51.016;3.720;2023-05-21T03:10:05;15.90;99.90
20977;DHT22;10647;51.016;3.720;2023-05-21T03:12:33;15.90;99.90
20977;DHT22;10647;51.016;3.720;2023-05-21T03:15:00;15.80;99.90
20977;DHT22;10647;51.016;3.720;2023-05-21T03:17:29;15.80;99.90
20977;DHT22;10647;51.016;3.720;2023-05-21T03:19:57;15.80;99.90
20977;DHT22;10647;51.016;3.720;2023-05-21T03:22:26;15.90;99.90
20977;DHT22;10647;51.016;3.720;2023-05-21T03:24:53;15.90;99.90
20977;DHT22;10647;51.016;3.720;2023-05-21T03:27:23;15.90;99.90
20977;DHT22;10647;51.016;3.720;2023-05-21T03:29:51;15.90;99.90
20977;DHT22;10647;51.016;3.720;2023-05-21T03:32:20;15.90;99.90
20977;DHT22;10647;51.016;3.720;2023-05-21T03:34:48;15.90;99.90
20977;DHT22;10647;51.016;3.720;2023-05-21T03:37:15;15.90;99.90
20977;DHT22;10647;51.016;3.720;2023-05-21T03:39:43;15.90;99.90
20977;DHT22;10647;51.016;3.720;2023-05-21T03:42:10;15.90;99.90
20977;DHT22;10647;51.016;3.720;2023-05-21T03:44:39;15.90;99.90
20977;DHT22;10647;51.016;3.720;2023-05-21T03:47:07;15.90;99.90
20977;DHT22;10647;51.016;3.720;2023-05-21T03:49:40;15.90;99.90
20977;DHT22;10647;51.016;3.720;2023-05-21T03:52:08;15.80;99.90
20977;DHT22;10647;51.016;3.720;2023-05-21T03:54:35;15.80;99.90
20977;DHT22;10647;51.016;3.720;2023-05-21T03:57:03;15.80;99.90
20977;DHT22;10647;51.016;3.720;2023-05-21T03:59:31;15.70;99.90
20977;DHT22;10647;51.016;3.720;2023-05-21T04:01:59;15.70;99.90
20977;DHT22;10647;51.016;3.720;2023-05-21T04:04:26;15.70;99.90
20977;DHT22;10647;51.016;3.720;2023-05-21T04:06:54;15.70;99.90
20977;DHT22;10647;51.016;3.720;2023-05-21T04:09:23;15.60;99.90
20977;DHT22;10647;51.016;3.720;2023-05-21T04:11:50;15.60;99.90
20977;DHT22;10647;51.016;3.720;2023-05-21T04:14:19;15.60;99.90
20977;DHT22;10647;51.016;3.720;2023-05-21T04:16:46;15.60;99.90
20977;DHT22;10647;51.016;3.720;2023-05-21T04:19:14;15.60;99.90
20977;DHT22;10647;51.016;3.720;2023-05-21T04:21:42;15.60;99.90
20977;DHT22;10647;51.016;3.720;2023-05-21T04:24:10;15.60;99.90
20977;DHT22;10647;51.016;3.720;2023-05-21T04:26:37;15.60;99.90
20977;DHT22;10647;51.016;3.720;2023-05-21T04:29:07;15.60;99.90
20977;DHT22;10647;51.016;3.720;2023-05-21T04:31:35;15.60;99.90
20977;DHT22;10647;51.016;3.720;2023-05-21T04:34:03;15.70;99.90
20977;DHT22;10647;51.016;3.720;2023-05-21T04:36:31;15.70;99.90
20977;DHT22;10647;51.016;3.720;2023-05-21T04:38:59;15.70;99.90
20977;DHT22;10647;51.016;3.720;2023-05-21T04:41:27;15.70;99.90
20977;DHT22;10647;51.016;3.720;2023-05-21T04:43:55;15.80;99.90
20977;DHT22;10647;51.016;3.720;2023-05-21T04:46:22;15.80;99.90
20977;DHT22;10647;51.016;3.720;2023-05-21T04:48:53;15.90;99.90
20977;DHT22;10647;51.016;3.720;2023-05-21T04:51:24;15.90;99.90
20977;DHT22;10647;51.016;3.720;2023-05-21T04:53:52;15.90;99.90
20977;DHT22;10647;51.016;3.720;2023-05-21T04:56:20;16.00;99.90
20977;DHT22;10647;51.016;3.720;2023-05-21T04:58:47;16.10;99.90
20977;DHT22;10647;51.016;3.720;2023-05-21T05:01:15;16.20;99.90
20977;DHT22;10647;51.016;3.720;2023-05-21T05:03:43;16.30;99.90
20977;DHT22;10647;51.016;3.720;2023-05-21T05:06:11;16.40;99.90
20977;DHT22;10647;51.016;3.720;2023-05-21T05:08:38;16.40;99.90
20977;DHT22;10647;51.016;3.720;2023-05-21T05:11:07;16.50;99.90
20977;DHT22;10647;51.016;3.720;2023-05-21T05:13:34;16.50;99.90
20977;DHT22;10647;51.016;3.720;2023-05-21T05:16:02;16.60;99.90
20977;DHT22;10647;51.016;3.720;2023-05-21T05:18:31;16.60;99.90
20977;DHT22;10647;51.016;3.720;2023-05-21T05:21:00;16.70;99.90
20977;DHT22;10647;51.016;3.720;2023-05-21T05:23:27;16.70;99.90
20977;DHT22;10647;51.016;3.720;2023-05-21T05:25:55;16.80;99.90
20977;DHT22;10647;51.016;3.720;2023-05-21T05:28:22;16.90;99.90
20977;DHT22;10647;51.016;3.720;2023-05-21T05:30:50;17.00;99.90
20977;DHT22;10647;51.016;3.720;2023-05-21T05:33:17;17.00;99.90
20977;DHT22;10647;51.016;3.720;2023-05-21T05:35:45;17.10;99.90
20977;DHT22;10647;51.016;3.720;2023-05-21T05:38:13;17.20;99.90
20977;DHT22;10647;51.016;3.720;2023-05-21T05:40:40;17.30;99.90
20977;DHT22;10647;51.016;3.720;2023-05-21T05:43:08;17.40;99.90
20977;DHT22;10647;51.016;3.720;2023-05-21T05:45:35;17.60;99.90
20977;DHT22;10647;51.016;3.720;2023-05-21T05:48:03;17.70;99.90
20977;DHT22;10647;51.016;3.720;2023-05-21T05:50:30;17.80;99.90
20977;DHT22;10647;51.016;3.720;2023-05-21T05:52:58;17.80;99.90
20977;DHT22;10647;51.016;3.720;2023-05-21T05:55:26;17.90;99.90
20977;DHT22;10647;51.016;3.720;2023-05-21T05:57:53;18.00;99.90
20977;DHT22;10647;51.016;3.720;2023-05-21T06:00:21;18.10;99.90
20977;DHT22;10647;51.016;3.720;2023-05-21T06:02:48;18.20;99.90
20977;DHT22;10647;51.016;3.720;2023-05-21T06:05:16;18.30;99.90
20977;DHT22;10647;51.016;3.720;2023-05-21T06:07:44;18.30;99.90
20977;DHT22;10647;51.016;3.720;2023-05-21T06:10:12;18.30;99.90
20977;DHT22;10647;51.016;3.720;2023-05-21T06:12:39;18.40;99.90
20977;DHT22;10647;51.016;3.720;2023-05-21T06:15:07;18.40;99.90
20977;DHT22;10647;51.016;3.720;2023-05-21T06:17:35;18.40;99.90
20977;DHT22;10647;51.016;3.720;2023-05-21T06:20:03;18.40;99.90
20977;DHT22;10647;51.016;3.720;2023-05-21T06:22:31;18.40;99.90
20977;DHT22;10647;51.016;3.720;2023-05-21T06:24:59;18.30;99.90
20977;DHT22;10647;51.016;3.720;2023-05-21T06:27:26;18.30;99.90
20977;DHT22;10647;51.016;3.720;2023-05-21T06:29:54;18.30;99.90
20977;DHT22;10647;51.016;3.720;2023-05-21T06:32:24;18.40;99.90
20977;DHT22;10647;51.016;3.720;2023-05-21T06:34:51;18.40;99.90
20977;DHT22;10647;51.016;3.720;2023-05-21T06:37:19;18.50;99.90
20977;DHT22;10647;51.016;3.720;2023-05-21T06:39:50;18.60;99.90
20977;DHT22;10647;51.016;3.720;2023-05-21T06:42:18;18.70;99.90
20977;DHT22;10647;51.016;3.720;2023-05-21T06:44:46;18.70;99.90
20977;DHT22;10647;51.016;3.720;2023-05-21T06:47:13;18.90;99.90
20977;DHT22;10647;51.016;3.720;2023-05-21T06:49:41;19.10;99.90
20977;DHT22;10647;51.016;3.720;2023-05-21T06:52:08;19.30;99.90
20977;DHT22;10647;51.016;3.720;2023-05-21T06:54:36;19.50;99.90
20977;DHT22;10647;51.016;3.720;2023-05-21T06:57:04;19.70;99.90
20977;DHT22;10647;51.016;3.720;2023-05-21T06:59:31;19.80;99.90
20977;DHT22;10647;51.016;3.720;2023-05-21T07:01:59;19.80;99.90
20977;DHT22;10647;51.016;3.720;2023-05-21T07:04:27;19.80;99.90
20977;DHT22;10647;51.016;3.720;2023-05-21T07:06:54;19.90;99.90
20977;DHT22;10647;51.016;3.720;2023-05-21T07:09:22;19.90;99.90
20977;DHT22;10647;51.016;3.720;2023-05-21T07:11:56;19.70;99.90
20977;DHT22;10647;51.016;3.720;2023-05-21T07:14:24;19.80;99.90
20977;DHT22;10647;51.016;3.720;2023-05-21T07:16:52;19.80;99.90
20977;DHT22;10647;51.016;3.720;2023-05-21T07:19:21;19.90;99.90
20977;DHT22;10647;51.016;3.720;2023-05-21T07:21:49;19.80;99.90
20977;DHT22;10647;51.016;3.720;2023-05-21T07:24:17;19.80;99.90
20977;DHT22;10647;51.016;3.720;2023-05-21T07:26:44;19.80;99.90
20977;DHT22;10647;51.016;3.720;2023-05-21T07:29:12;19.90;99.90
20977;DHT22;10647;51.016;3.720;2023-05-21T07:31:39;20.00;99.90
20977;DHT22;10647;51.016;3.720;2023-05-21T07:34:07;20.00;99.90
20977;DHT22;10647;51.016;3.720;2023-05-21T07:36:34;19.90;99.90
20977;DHT22;10647;51.016;3.720;2023-05-21T07:39:02;20.00;99.90
20977;DHT22;10647;51.016;3.720;2023-05-21T07:41:30;20.10;99.90
20977;DHT22;10647;51.016;3.720;2023-05-21T07:43:58;20.10;99.90
20977;DHT22;10647;51.016;3.720;2023-05-21T07:46:27;20.10;99.90
20977;DHT22;10647;51.016;3.720;2023-05-21T07:48:54;19.90;99.90
20977;DHT22;10647;51.016;3.720;2023-05-21T07:51:22;19.90;99.90
20977;DHT22;10647;51.016;3.720;2023-05-21T07:53:49;20.10;99.90
20977;DHT22;10647;51.016;3.720;2023-05-21T07:56:19;20.30;99.90
20977;DHT22;10647;51.016;3.720;2023-05-21T07:58:47;20.50;99.90
20977;DHT22;10647;51.016;3.720;2023-05-21T08:01:14;20.60;99.90
20977;DHT22;10647;51.016;3.720;2023-05-21T08:03:42;20.60;99.90
20977;DHT22;10647;51.016;3.720;2023-05-21T08:06:10;20.80;99.90
20977;DHT22;10647;51.016;3.720;2023-05-21T08:08:37;21.10;99.90
20977;DHT22;10647;51.016;3.720;2023-05-21T08:11:05;21.80;99.90
20977;DHT22;10647;51.016;3.720;2023-05-21T08:13:32;22.10;99.90
20977;DHT22;10647;51.016;3.720;2023-05-21T08:16:00;22.30;99.90
20977;DHT22;10647;51.016;3.720;2023-05-21T08:18:27;22.30;99.90
20977;DHT22;10647;51.016;3.720;2023-05-21T08:20:55;22.30;99.90
20977;DHT22;10647;51.016;3.720;2023-05-21T08:23:22;22.50;99.90
20977;DHT22;10647;51.016;3.720;2023-05-21T08:25:50;22.80;99.90
20977;DHT22;10647;51.016;3.720;2023-05-21T08:28:20;22.80;99.90
20977;DHT22;10647;51.016;3.720;2023-05-21T08:30:49;22.90;99.90
20977;DHT22;10647;51.016;3.720;2023-05-21T08:33:16;22.90;99.90
20977;DHT22;10647;51.016;3.720;2023-05-21T08:35:44;22.90;99.90
20977;DHT22;10647;51.016;3.720;2023-05-21T08:38:11;22.80;99.90
20977;DHT22;10647;51.016;3.720;2023-05-21T08:40:39;22.60;99.90
20977;DHT22;10647;51.016;3.720;2023-05-21T08:43:07;22.70;99.90
20977;DHT22;10647;51.016;3.720;2023-05-21T08:45:36;22.60;99.90
20977;DHT22;10647;51.016;3.720;2023-05-21T08:48:09;22.40;99.90
20977;DHT22;10647;51.016;3.720;2023-05-21T08:50:37;22.30;99.90
20977;DHT22;10647;51.016;3.720;2023-05-21T08:53:05;22.30;99.90
20977;DHT22;10647;51.016;3.720;2023-05-21T08:55:32;22.20;99.90
20977;DHT22;10647;51.016;3.720;2023-05-21T08:58:02;22.30;99.90
20977;DHT22;10647;51.016;3.720;2023-05-21T09:00:31;22.40;99.90
20977;DHT22;10647;51.016;3.720;2023-05-21T09:02:58;22.50;99.90
20977;DHT22;10647;51.016;3.720;2023-05-21T09:05:27;22.70;99.90
20977;DHT22;10647;51.016;3.720;2023-05-21T09:08:06;23.10;99.90
20977;DHT22;10647;51.016;3.720;2023-05-21T09:10:39;23.60;99.90
20977;DHT22;10647;51.016;3.720;2023-05-21T09:13:08;23.70;99.90
20977;DHT22;10647;51.016;3.720;2023-05-21T09:15:36;23.70;99.90
20977;DHT22;10647;51.016;3.720;2023-05-21T09:18:04;23.90;99.90
20977;DHT22;10647;51.016;3.720;2023-05-21T09:20:31;24.00;99.90
20977;DHT22;10647;51.016;3.720;2023-05-21T09:23:03;24.30;99.90
20977;DHT22;10647;51.016;3.720;2023-05-21T09:25:32;24.60;99.40
20977;DHT22;10647;51.016;3.720;2023-05-21T09:28:01;24.60;99.10
20977;DHT22;10647;51.016;3.720;2023-05-21T09:30:29;25.10;98.60
20977;DHT22;10647;51.016;3.720;2023-05-21T09:32:57;25.30;97.70
20977;DHT22;10647;51.016;3.720;2023-05-21T09:35:25;25.50;97.60
20977;DHT22;10647;51.016;3.720;2023-05-21T09:37:54;25.80;96.80
20977;DHT22;10647;51.016;3.720;2023-05-21T09:40:23;25.80;96.40
20977;DHT22;10647;51.016;3.720;2023-05-21T09:42:52;26.10;95.90
20977;DHT22;10647;51.016;3.720;2023-05-21T09:45:26;26.00;95.50
20977;DHT22;10647;51.016;3.720;2023-05-21T09:47:55;26.10;95.50
20977;DHT22;10647;51.016;3.720;2023-05-21T09:50:24;26.20;95.00
20977;DHT22;10647;51.016;3.720;2023-05-21T09:52:55;26.10;95.20
20977;DHT22;10647;51.016;3.720;2023-05-21T09:55:25;26.10;94.80
20977;DHT22;10647;51.016;3.720;2023-05-21T09:57:53;25.90;94.90
20977;DHT22;10647;51.016;3.720;2023-05-21T10:00:24;26.40;94.90
20977;DHT22;10647;51.016;3.720;2023-05-21T10:02:58;26.90;94.00
20977;DHT22;10647;51.016;3.720;2023-05-21T10:05:28;26.90;93.70
20977;DHT22;10647;51.016;3.720;2023-05-21T10:08:02;26.80;93.50
20977;DHT22;10647;51.016;3.720;2023-05-21T10:10:31;27.00;93.50
20977;DHT22;10647;51.016;3.720;2023-05-21T10:13:06;27.10;93.00
20977;DHT22;10647;51.016;3.720;2023-05-21T10:15:40;27.10;92.80
20977;DHT22;10647;51.016;3.720;2023-05-21T10:18:11;27.20;92.40
20977;DHT22;10647;51.016;3.720;2023-05-21T10:20:39;26.50;92.80
20977;DHT22;10647;51.016;3.720;2023-05-21T10:23:07;26.50;93.10
20977;DHT22;10647;51.016;3.720;2023-05-21T10:25:36;26.20;93.40
20977;DHT22;10647;51.016;3.720;2023-05-21T10:28:04;26.00;93.80
20977;DHT22;10647;51.016;3.720;2023-05-21T10:30:34;26.20;93.80
20977;DHT22;10647;51.016;3.720;2023-05-21T10:33:03;26.40;93.60
20977;DHT22;10647;51.016;3.720;2023-05-21T10:35:32;26.50;93.60
20977;DHT22;10647;51.016;3.720;2023-05-21T10:38:01;26.30;93.40
20977;DHT22;10647;51.016;3.720;2023-05-21T10:40:30;26.40;93.90
20977;DHT22;10647;51.016;3.720;2023-05-21T10:46:05;26.60;93.20
20977;DHT22;10647;51.016;3.720;2023-05-21T10:48:41;26.50;93.30
20977;DHT22;10647;51.016;3.720;2023-05-21T10:51:35;26.40;93.30
20977;DHT22;10647;51.016;3.720;2023-05-21T10:54:15;26.20;93.60
20977;DHT22;10647;51.016;3.720;2023-05-21T10:56:41;26.00;93.80
20977;DHT22;10647;51.016;3.720;2023-05-21T10:59:24;25.90;93.90
20977;DHT22;10647;51.016;3.720;2023-05-21T11:01:50;25.80;94.20
20977;DHT22;10647;51.016;3.720;2023-05-21T11:04:25;25.60;94.40
20977;DHT22;10647;51.016;3.720;2023-05-21T11:06:51;25.80;94.30
20977;DHT22;10647;51.016;3.720;2023-05-21T11:09:19;25.80;94.20
20977;DHT22;10647;51.016;3.720;2023-05-21T11:11:57;26.20;94.10
20977;DHT22;10647;51.016;3.720;2023-05-21T11:14:38;26.80;93.50
20977;DHT22;10647;51.016;3.720;2023-05-21T11:17:12;27.30;92.60
20977;DHT22;10647;51.016;3.720;2023-05-21T11:19:44;27.80;92.00
20977;DHT22;10647;51.016;3.720;2023-05-21T11:22:23;28.20;91.70
20977;DHT22;10647;51.016;3.720;2023-05-21T11:24:53;28.20;91.20
20977;DHT22;10647;51.016;3.720;2023-05-21T11:27:40;28.30;90.60
20977;DHT22;10647;51.016;3.720;2023-05-21T11:30:15;28.20;90.70
20977;DHT22;10647;51.016;3.720;2023-05-21T11:35:55;29.20;89.40
20977;DHT22;10647;51.016;3.720;2023-05-21T11:38:29;28.80;89.40
20977;DHT22;10647;51.016;3.720;2023-05-21T11:41:06;28.40;90.00
20977;DHT22;10647;51.016;3.720;2023-05-21T11:43:30;28.50;89.90
20977;DHT22;10647;51.016;3.720;2023-05-21T11:45:58;28.30;90.00
20977;DHT22;10647;51.016;3.720;2023-05-21T11:48:26;28.30;89.60
20977;DHT22;10647;51.016;3.720;2023-05-21T11:50:54;28.80;89.00
20977;DHT22;10647;51.016;3.720;2023-05-21T11:53:29;29.30;88.10
20977;DHT22;10647;51.016;3.720;2023-05-21T11:55:57;29.60;86.70
20977;DHT22;10647;51.016;3.720;2023-05-21T11:58:25;29.80;86.10
20977;DHT22;10647;51.016;3.720;2023-05-21T12:00:54;29.10;85.40
20977;DHT22;10647;51.016;3.720;2023-05-21T12:03:22;28.20;87.40
20977;DHT22;10647;51.016;3.720;2023-05-21T12:05:51;27.50;89.30
20977;DHT22;10647;51.016;3.720;2023-05-21T12:08:23;27.20;90.20
20977;DHT22;10647;51.016;3.720;2023-05-21T12:11:01;26.90;90.80
20977;DHT22;10647;51.016;3.720;2023-05-21T12:13:29;27.00;90.90
20977;DHT22;10647;51.016;3.720;2023-05-21T12:15:57;27.20;90.80
20977;DHT22;10647;51.016;3.720;2023-05-21T12:18:28;27.30;90.60
20977;DHT22;10647;51.016;3.720;2023-05-21T12:20:55;27.40;90.40
20977;DHT22;10647;51.016;3.720;2023-05-21T12:23:23;27.00;90.70
20977;DHT22;10647;51.016;3.720;2023-05-21T12:25:51;26.40;91.30
20977;DHT22;10647;51.016;3.720;2023-05-21T12:28:22;25.70;91.90
20977;DHT22;10647;51.016;3.720;2023-05-21T12:30:50;25.60;92.40
20977;DHT22;10647;51.016;3.720;2023-05-21T12:33:19;25.50;92.70
20977;DHT22;10647;51.016;3.720;2023-05-21T12:35:47;25.60;92.60
20977;DHT22;10647;51.016;3.720;2023-05-21T12:38:15;25.80;92.60
20977;DHT22;10647;51.016;3.720;2023-05-21T12:40:42;25.80;93.10
20977;DHT22;10647;51.016;3.720;2023-05-21T12:43:11;25.90;92.90
20977;DHT22;10647;51.016;3.720;2023-05-21T12:45:38;25.70;93.00
20977;DHT22;10647;51.016;3.720;2023-05-21T12:48:06;25.30;93.60
20977;DHT22;10647;51.016;3.720;2023-05-21T12:50:37;25.50;93.80
20977;DHT22;10647;51.016;3.720;2023-05-21T12:53:03;25.70;93.50
20977;DHT22;10647;51.016;3.720;2023-05-21T12:55:30;26.20;93.30
20977;DHT22;10647;51.016;3.720;2023-05-21T12:58:02;26.70;93.10
20977;DHT22;10647;51.016;3.720;2023-05-21T13:00:32;27.30;92.30
20977;DHT22;10647;51.016;3.720;2023-05-21T13:02:59;27.60;91.90
20977;DHT22;10647;51.016;3.720;2023-05-21T13:05:27;27.70;91.40
20977;DHT22;10647;51.016;3.720;2023-05-21T13:07:54;27.60;91.30
20977;DHT22;10647;51.016;3.720;2023-05-21T13:10:22;27.80;91.40
20977;DHT22;10647;51.016;3.720;2023-05-21T13:12:49;27.50;91.20
20977;DHT22;10647;51.016;3.720;2023-05-21T13:15:17;27.50;91.40
20977;DHT22;10647;51.016;3.720;2023-05-21T13:17:44;27.70;91.20
20977;DHT22;10647;51.016;3.720;2023-05-21T13:20:14;28.10;91.00
20977;DHT22;10647;51.016;3.720;2023-05-21T13:22:43;28.40;90.50
20977;DHT22;10647;51.016;3.720;2023-05-21T13:25:13;28.50;90.20
20977;DHT22;10647;51.016;3.720;2023-05-21T13:27:42;29.10;89.90
20977;DHT22;10647;51.016;3.720;2023-05-21T13:30:10;28.90;88.90
20977;DHT22;10647;51.016;3.720;2023-05-21T13:32:39;29.20;88.50
20977;DHT22;10647;51.016;3.720;2023-05-21T13:35:07;29.70;87.00
20977;DHT22;10647;51.016;3.720;2023-05-21T13:37:37;30.20;85.40
20977;DHT22;10647;51.016;3.720;2023-05-21T13:40:05;30.10;85.00
20977;DHT22;10647;51.016;3.720;2023-05-21T13:42:34;29.90;84.80
20977;DHT22;10647;51.016;3.720;2023-05-21T13:45:04;30.60;84.00
20977;DHT22;10647;51.016;3.720;2023-05-21T13:47:32;31.70;82.20
20977;DHT22;10647;51.016;3.720;2023-05-21T13:50:00;31.80;80.70
20977;DHT22;10647;51.016;3.720;2023-05-21T13:52:30;31.10;81.00
20977;DHT22;10647;51.016;3.720;2023-05-21T13:55:17;31.20;81.10
20977;DHT22;10647;51.016;3.720;2023-05-21T13:57:46;30.80;81.10
20977;DHT22;10647;51.016;3.720;2023-05-21T14:00:13;30.10;82.00
20977;DHT22;10647;51.016;3.720;2023-05-21T14:02:42;29.80;83.10
20977;DHT22;10647;51.016;3.720;2023-05-21T14:05:11;29.60;83.70
20977;DHT22;10647;51.016;3.720;2023-05-21T14:07:38;29.20;84.50
20977;DHT22;10647;51.016;3.720;2023-05-21T14:10:09;29.50;84.10
20977;DHT22;10647;51.016;3.720;2023-05-21T14:12:40;29.80;83.20
20977;DHT22;10647;51.016;3.720;2023-05-21T14:15:08;30.30;82.20
20977;DHT22;10647;51.016;3.720;2023-05-21T14:17:37;30.30;81.70
20977;DHT22;10647;51.016;3.720;2023-05-21T14:20:07;30.00;81.90
20977;DHT22;10647;51.016;3.720;2023-05-21T14:22:35;30.00;82.20
20977;DHT22;10647;51.016;3.720;2023-05-21T14:25:03;30.60;81.30
20977;DHT22;10647;51.016;3.720;2023-05-21T14:27:30;30.70;81.40
20977;DHT22;10647;51.016;3.720;2023-05-21T14:30:00;30.00;81.00
20977;DHT22;10647;51.016;3.720;2023-05-21T14:32:27;29.50;82.20
20977;DHT22;10647;51.016;3.720;2023-05-21T14:34:55;29.20;83.20
20977;DHT22;10647;51.016;3.720;2023-05-21T14:37:22;29.30;83.40
20977;DHT22;10647;51.016;3.720;2023-05-21T14:39:51;29.60;83.40
20977;DHT22;10647;51.016;3.720;2023-05-21T14:42:19;29.50;82.80
20977;DHT22;10647;51.016;3.720;2023-05-21T14:44:46;29.40;83.20
20977;DHT22;10647;51.016;3.720;2023-05-21T14:47:16;29.70;82.60
20977;DHT22;10647;51.016;3.720;2023-05-21T14:49:45;30.00;82.10
20977;DHT22;10647;51.016;3.720;2023-05-21T14:52:12;32.60;78.10
20977;DHT22;10647;51.016;3.720;2023-05-21T14:54:42;34.80;73.40
20977;DHT22;10647;51.016;3.720;2023-05-21T14:57:15;34.70;70.90
20977;DHT22;10647;51.016;3.720;2023-05-21T14:59:43;35.20;70.30
20977;DHT22;10647;51.016;3.720;2023-05-21T15:02:11;36.30;67.30
20977;DHT22;10647;51.016;3.720;2023-05-21T15:04:40;37.30;65.20
20977;DHT22;10647;51.016;3.720;2023-05-21T15:07:07;38.10;62.90
20977;DHT22;10647;51.016;3.720;2023-05-21T15:09:35;37.80;62.10
20977;DHT22;10647;51.016;3.720;2023-05-21T15:12:02;37.50;62.10
20977;DHT22;10647;51.016;3.720;2023-05-21T15:14:30;37.70;61.00
20977;DHT22;10647;51.016;3.720;2023-05-21T15:16:57;36.00;62.40
20977;DHT22;10647;51.016;3.720;2023-05-21T15:19:25;34.30;65.20
20977;DHT22;10647;51.016;3.720;2023-05-21T15:21:52;33.00;67.50
20977;DHT22;10647;51.016;3.720;2023-05-21T15:24:21;31.70;70.20
20977;DHT22;10647;51.016;3.720;2023-05-21T15:26:48;31.30;71.70
20977;DHT22;10647;51.016;3.720;2023-05-21T15:29:16;32.70;70.80
20977;DHT22;10647;51.016;3.720;2023-05-21T15:31:46;33.70;68.20
20977;DHT22;10647;51.016;3.720;2023-05-21T15:34:14;33.40;67.40
20977;DHT22;10647;51.016;3.720;2023-05-21T15:36:43;32.10;69.50
20977;DHT22;10647;51.016;3.720;2023-05-21T15:39:10;31.20;71.00
20977;DHT22;10647;51.016;3.720;2023-05-21T15:41:39;30.40;73.10
20977;DHT22;10647;51.016;3.720;2023-05-21T15:44:07;29.90;74.30
20977;DHT22;10647;51.016;3.720;2023-05-21T15:46:34;29.30;75.30
20977;DHT22;10647;51.016;3.720;2023-05-21T15:49:02;28.80;76.40